KRHI/RHI METAR and TAF weather

Enter ICAO airport designator
Station Type Date Time Source
KRHI METAR 2020/01/22 21:05 UTC NOAA

KRHI 222105Z AUTO 20010KT 1 1/2SM -SN BR OVC008 M01/M03 A2990 RMK AO2 P0000 T10111033


Station Type Date Time Source
KRHI Decoded METAR 2020/01/22 21:05 UTC NOAA

RHINELANDER-ONEIDA CO AIRPORT , WI, United States (KRHI) 45-38N 89-29W 485M
Jan 22, 2020 - 04:05 PM EST / 2020.01.22 2105 UTC
Wind: from the SSW (200 degrees) at 12 MPH (10 KT):0
Visibility: 1 1/2 mile(s):0
Sky conditions: overcast
Weather: light snow; mist
Precipitation last hour: A trace
Temperature: 30.0 F (-1.1 C)
Windchill: 19 F (-7 C):1
Dew Point: 26.1 F (-3.3 C)
Relative Humidity: 84%
Pressure (altimeter): 29.9 in. Hg (1012 hPa)
ob: KRHI 222105Z AUTO 20010KT 1 1/2SM -SN BR OVC008 M01/M03 A2990 RMK AO2 P0000 T10111033
cycle: 21

Station Type Date Time Source
KRHI TAF 2020/01/22 21:48 UTC NOAA

TAF
AMD KRHI 222047Z 2221/2318 22012G20KT 3SM -SN OVC011
TEMPO 2221/2224 1SM -SN BKN008
FM230000 20008KT 3SM -SN BR OVC006
FM230700 18004KT 2SM -SN OVC004

Example: see airport list